Main page
METAR-TAF:

METAR-TAF

Airports :

Alderney,

Alderney Airport

latitude: 49-43N, longitude: 002-12W, elevation: 71 m

Current weather observation

The report was made 23 minutes ago, at 18:20 UTC
Wind 9 kt from the East
Temperature 9°C
Humidity 87%
Pressure 1019 hPa
Visibility 10 km or more
no clouds below 1500 m and no cumulonimbus

METAR: EGJA 261820Z 09009KT CAVOK 09/07 Q1019

Time: 19:43 (18:43 UTC)

Forecast

The report was made 4 hours and 49 minutes ago, at 13:54 UTC
Forecast valid from 26 at 15 UTC to 26 at 19 UTC
Wind 18 kt from the East
Visibility 10 km or more
no clouds below 1500 m and no cumulonimbus

TAF: EGJA 261354Z 2615/2619 08018KT CAVOK

Weather observations and forecasts of more than 4000 airports (METAR and TAF reports).

The available stations are represented by yellow and red dots on the map.

Hover mouse over dot to see the name of the station.

Then click to see weather observations and forecasts.

To change the map : click on the green buttons with a black cross to zoom in, on the green button with a dash to zoom out, or on the green arrows for adjacent maps.


METAR-TAF: